createdAt,value
2023-05-24T00:07:09.849Z,9.7
2023-05-24T00:22:19.697Z,9.4
2023-05-24T00:37:28.884Z,9.3
2023-05-24T00:52:38.377Z,9.1
2023-05-24T01:07:47.809Z,9.1
2023-05-24T01:22:57.318Z,8.8
2023-05-24T01:38:06.622Z,8.6
2023-05-24T01:53:16.223Z,8.8
2023-05-24T02:08:25.518Z,8.8
2023-05-24T02:23:35.428Z,8.8
2023-05-24T02:38:45.965Z,8.7
2023-05-24T02:53:55.129Z,8.6
2023-05-24T03:09:05.075Z,8.7
2023-05-24T03:24:15.335Z,8.6
2023-05-24T03:39:25.011Z,8.5
2023-05-24T03:54:34.409Z,8.5
2023-05-24T04:09:45.977Z,8.6
2023-05-24T04:24:56.148Z,8.8
2023-05-24T04:40:06.602Z,9
2023-05-24T04:55:16.685Z,9.2
2023-05-24T05:10:26.933Z,9.4
2023-05-24T05:25:36.437Z,9.5
2023-05-24T05:40:46.289Z,9.5
2023-05-24T05:55:55.846Z,9.7
2023-05-24T06:11:05.490Z,10.2
2023-05-24T06:26:16.131Z,10.6
2023-05-24T06:41:26.700Z,10.9
2023-05-24T06:56:37.322Z,11.2
2023-05-24T07:11:47.440Z,11.3
2023-05-24T07:26:57.869Z,11.4
2023-05-24T07:42:08.042Z,11.3
2023-05-24T07:57:17.754Z,11.3
2023-05-24T08:12:27.952Z,11.2
2023-05-24T08:27:38.178Z,11.2
2023-05-24T08:42:47.429Z,11.1
2023-05-24T08:57:57.932Z,11.4
2023-05-24T09:13:07.904Z,11.5
2023-05-24T09:28:18.042Z,11.6
2023-05-24T09:43:27.973Z,11.7
2023-05-24T09:58:37.803Z,11.8
2023-05-24T10:13:47.570Z,11.9
2023-05-24T10:28:57.152Z,11.9
2023-05-24T10:44:10.006Z,11.7
2023-05-24T10:59:20.133Z,11.6
2023-05-24T11:14:29.587Z,11.6
2023-05-24T11:29:39.752Z,11.9
2023-05-24T11:44:49.576Z,12.4
2023-05-24T11:59:59.278Z,12.6
2023-05-24T12:15:08.582Z,13.4
2023-05-24T12:30:18.678Z,14.3
2023-05-24T12:45:29.446Z,14.9
2023-05-24T13:00:39.513Z,14.9
2023-05-24T13:15:50.247Z,14.9
2023-05-24T13:31:00.098Z,14.8
2023-05-24T13:46:11.008Z,14.6
2023-05-24T14:01:22.329Z,14.5
2023-05-24T14:16:32.408Z,14.6
2023-05-24T14:31:42.437Z,14.5
2023-05-24T14:46:55.184Z,14.6
2023-05-24T15:02:05.692Z,15.4
2023-05-24T15:17:16.557Z,15.5
2023-05-24T15:32:32.238Z,16.7
2023-05-24T15:47:41.647Z,16
2023-05-24T16:02:51.495Z,15.5
2023-05-24T16:18:02.195Z,15.3
2023-05-24T16:33:12.653Z,15.1
2023-05-24T16:48:23.130Z,15
2023-05-24T17:03:33.566Z,15
2023-05-24T17:18:45.326Z,15
2023-05-24T17:33:55.461Z,14.8
2023-05-24T17:49:05.053Z,14.7
2023-05-24T18:04:14.638Z,14.5
2023-05-24T18:19:24.233Z,14.4
2023-05-24T18:34:33.954Z,14.3
2023-05-24T18:49:43.226Z,14.2
2023-05-24T19:04:53.303Z,14.1
2023-05-24T19:20:03.062Z,14.1
2023-05-24T19:35:13.560Z,14
2023-05-24T19:50:23.935Z,13.8
2023-05-24T20:05:33.066Z,13.7
2023-05-24T20:20:46.701Z,13.5
2023-05-24T20:35:56.536Z,13.3
2023-05-24T20:51:06.192Z,13.1
2023-05-24T21:06:16.025Z,13
2023-05-24T21:21:25.740Z,12.9
2023-05-24T21:36:35.276Z,12.7
2023-05-24T21:51:45.348Z,12.5
2023-05-24T22:06:54.495Z,12.2
2023-05-24T22:22:04.139Z,12.1
2023-05-24T22:37:13.733Z,11.9
2023-05-24T22:52:23.487Z,11.8
2023-05-24T23:07:33.297Z,11.6
2023-05-24T23:22:43.082Z,11.4
2023-05-24T23:37:52.967Z,11.2
2023-05-24T23:53:02.360Z,11.1
